HAP weather

Los Pirules Heliport
Naucalpan, México (state), Mexico

Public forecast

Using degrees Celsius for public forecast. Weather courtesy of forecast.io.

Closest aviation weather report (METAR) to Los Pirules Heliport

Closest report is Licenciado Benito Juarez International Airport, 10.1 nm (18.6 km) ESE. Retrieved 2020/01/21 00:44 UTC (59 minutes ago):

MMMX 210044Z 00000KT 7SM BKN020 OVC080 13/06 A3045 NOSIG RMK 8/57/ HZY PCPN SW

Closest aviation forecast (TAF) to Los Pirules Heliport

Closest forecast is Licenciado Benito Juarez International Airport, 10.1 nm (18.6 km) ESE. Retrieved 2020-01-21 00:33 UTC (1 hour ago):

TAF COR MMMX 210126Z 2100/2206 03006KT P6SM BKN020 OVC080 TX18/2121Z TN08/2112Z TEMPO 2100/2104 5SM -RA OVC015 FM210400 03005KT 5SM HZ BKN020 OVC080 BECMG 2109/2110 3SM BR OVC010 FM211600 03006KT 5SM HZ BKN020 FM212100 07010KT P6SM SCT020 BECMG 2201/2202 00000KT